Time;durP1;ratioP1;P1;durP2;ratioP2;P2;SDS_P1;SDS_P2;PMS_P1;PMS_P2;Temp;Humidity;BMP_temperature;BMP_pressure;BME280_temperature;BME280_humidity;BME280_pressure;Samples;Min_cycle;Max_cycle;Signal;HPM_P1;HPM_P2
2023/01/27 00:00:13;;;;;;;28.60;16.20;;;17.00;71.70;;;17.96;40.33;98837.00;5061365;28;20050;-82
2023/01/27 00:02:59;;;;;;;24.27;16.35;;;17.00;71.70;;;17.96;40.51;98828.75;5087966;28;20065;-83
2023/01/27 00:05:25;;;;;;;27.17;15.68;;;17.00;71.70;;;17.99;40.13;98831.69;5095417;28;20505;-82
2023/01/27 00:07:51;;;;;;;25.77;15.60;;;17.00;71.70;;;17.94;40.29;98837.34;5105839;28;20039;-83
2023/01/27 00:10:18;;;;;;;22.40;15.27;;;17.00;71.50;;;17.94;40.16;98840.06;5093359;28;20527;-82
2023/01/27 00:15:31;;;;;;;23.13;14.27;;;17.00;71.50;;;17.90;40.44;98825.38;5090941;27;20047;-82
2023/01/27 00:17:57;;;;;;;24.20;14.98;;;17.00;71.50;;;17.91;40.14;98829.75;5080261;27;20095;-82
2023/01/27 00:26:07;;;;;;;19.17;13.65;;;17.00;71.90;;;18.05;40.14;98835.06;5094760;27;20367;-83
2023/01/27 00:28:37;;;;;;;24.77;15.32;;;17.00;71.80;;;17.97;40.42;98833.13;5064548;27;20046;-82
2023/01/27 00:31:04;;;;;;;24.05;14.48;;;17.00;71.60;;;17.94;40.18;98833.78;5100425;27;20043;-83
2023/01/27 00:33:32;;;;;;;24.95;15.85;;;17.00;72.30;;;17.94;40.24;98840.06;5098097;27;20091;-83
2023/01/27 00:36:01;;;;;;;27.20;17.23;;;17.00;71.50;;;17.92;40.09;98831.34;5114020;27;20473;-83
2023/01/27 00:38:32;;;;;;;27.52;15.52;;;16.90;71.60;;;17.91;40.27;98837.97;5095678;27;20057;-83
2023/01/27 00:43:43;;;;;;;26.85;14.82;;;17.00;71.70;;;17.92;40.05;98838.78;5090221;27;20118;-83
2023/01/27 00:46:09;;;;;;;24.33;15.18;;;16.90;71.30;;;17.88;40.31;98835.84;5080311;27;20541;-82
2023/01/27 00:48:35;;;;;;;22.92;14.80;;;16.90;71.50;;;17.88;40.13;98840.53;5082031;27;20047;-83
2023/01/27 00:51:01;;;;;;;22.80;14.68;;;16.90;71.30;;;17.87;40.14;98839.75;5064360;27;20043;-82
2023/01/27 00:53:27;;;;;;;26.17;14.85;;;16.90;71.30;;;17.86;40.33;98834.56;5081032;27;20184;-82
2023/01/27 00:55:53;;;;;;;28.90;15.68;;;17.00;71.50;;;17.85;40.22;98832.97;5101908;27;20038;-82
2023/01/27 00:58:21;;;;;;;27.67;14.43;;;16.90;71.40;;;17.87;40.09;98827.97;5065442;27;20123;-82
2023/01/27 01:00:47;;;;;;;26.55;14.88;;;16.90;71.30;;;17.87;40.27;98834.25;5102573;27;20530;-82
2023/01/27 01:03:13;;;;;;;24.60;14.55;;;16.90;71.40;;;17.84;39.81;98834.91;5085068;27;20126;-83
2023/01/27 01:05:39;;;;;;;23.10;13.90;;;16.90;71.10;;;17.80;40.18;98828.44;5102635;27;20091;-83
2023/01/27 01:08:08;;;;;;;23.10;14.50;;;16.90;71.40;;;17.83;39.81;98825.03;5085102;27;20051;-83
2023/01/27 01:10:37;;;;;;;23.20;14.30;;;16.90;71.30;;;17.85;39.88;98814.56;5083836;27;20044;-83
2023/01/27 01:13:06;;;;;;;22.17;13.13;;;16.90;71.10;;;17.83;40.08;98822.28;5063450;27;20420;-83
2023/01/27 01:15:39;;;;;;;21.58;13.80;;;16.90;71.30;;;17.82;40.04;98817.13;5081000;27;20093;-82
2023/01/27 01:18:06;;;;;;;21.40;13.10;;;16.90;71.30;;;17.82;39.96;98817.94;5084556;27;20043;-83
2023/01/27 01:20:37;;;;;;;22.73;13.45;;;16.90;71.30;;;17.85;40.30;98824.72;5082347;27;20539;-83
2023/01/27 01:23:04;;;;;;;16.67;13.13;;;16.90;71.60;;;17.92;40.33;98823.13;5062852;28;20043;-83
2023/01/27 01:25:30;;;;;;;23.65;13.95;;;16.90;71.80;;;17.92;40.28;98819.56;5081044;27;20570;-83
2023/01/27 01:27:56;;;;;;;23.75;13.82;;;16.90;71.60;;;17.86;40.33;98818.94;5102539;27;20061;-83
2023/01/27 01:30:25;;;;;;;25.75;13.27;;;16.90;71.50;;;17.84;40.25;98815.69;5083029;27;20679;-83
2023/01/27 01:32:54;;;;;;;22.13;13.30;;;17.00;71.50;;;17.80;40.10;98817.44;5083414;27;20031;-82
2023/01/27 01:35:20;;;;;;;25.05;14.40;;;16.90;72.10;;;17.80;40.25;98814.72;5079936;27;20045;-83
2023/01/27 01:37:47;;;;;;;20.55;13.93;;;16.90;71.30;;;17.80;40.13;98817.44;5095182;27;20474;-83
2023/01/27 01:40:13;;;;;;;20.08;13.00;;;16.90;71.30;;;17.80;39.96;98814.72;5111888;27;20031;-82
2023/01/27 01:42:56;;;;;;;23.20;13.18;;;16.80;71.20;;;17.86;40.35;98810.69;5082074;27;20049;-82
2023/01/27 01:45:31;;;;;;;18.45;12.77;;;16.80;71.70;;;17.87;40.23;98812.28;5102281;27;20039;-82
2023/01/27 01:48:48;;;;;;;20.90;13.80;;;16.90;71.80;;;17.82;40.21;98817.13;5131944;27;20557;-82
2023/01/27 01:51:28;;;;;;;26.27;13.98;;;16.90;71.80;;;17.76;40.23;98810.97;5088792;27;20139;-82
2023/01/27 01:53:56;;;;;;;21.02;13.60;;;16.80;71.50;;;17.78;40.21;98815.00;5133509;27;20661;-82
2023/01/27 01:56:38;;;;;;;22.90;14.13;;;16.80;71.50;;;17.72;40.12;98810.78;5116524;27;20039;-82
2023/01/27 01:59:08;;;;;;;20.70;13.25;;;16.80;71.50;;;17.75;40.13;98815.63;5076292;27;20035;-82
2023/01/27 02:01:34;;;;;;;19.73;13.63;;;16.80;71.20;;;17.77;40.21;98818.06;5100125;27;20035;-82
2023/01/27 02:04:04;;;;;;;21.30;12.93;;;16.80;71.20;;;17.78;40.31;98815.00;5083005;27;20476;-82
2023/01/27 02:06:46;;;;;;;22.25;13.55;;;16.80;71.50;;;17.86;40.31;98810.69;5115406;27;20047;-82
2023/01/27 02:09:13;;;;;;;21.95;13.93;;;16.90;71.70;;;17.86;40.16;98818.94;5085209;27;20039;-82
2023/01/27 02:11:39;;;;;;;20.05;12.70;;;16.80;71.80;;;17.82;39.97;98809.72;5058387;27;20061;-82
2023/01/27 02:14:05;;;;;;;20.25;13.75;;;16.80;71.50;;;17.78;40.27;98814.19;5081628;27;20040;-83
2023/01/27 02:16:31;;;;;;;21.48;13.55;;;16.80;71.50;;;17.74;40.09;98802.25;5061002;27;20039;-83
2023/01/27 02:18:57;;;;;;;20.15;12.75;;;16.80;71.40;;;17.76;40.05;98809.03;5103205;27;20652;-83
2023/01/27 02:21:23;;;;;;;20.58;12.73;;;16.80;71.30;;;17.76;40.09;98817.25;5081586;27;20112;-82
2023/01/27 02:23:54;;;;;;;18.45;12.65;;;16.80;71.20;;;17.76;40.23;98819.22;5079524;27;20176;-82
2023/01/27 02:26:44;;;;;;;17.37;12.60;;;16.90;71.30;;;17.78;40.03;98823.25;5095814;27;20037;-83
2023/01/27 02:29:13;;;;;;;20.67;13.45;;;16.90;71.20;;;17.82;40.15;98820.69;5075380;27;20088;-83
2023/01/27 02:31:39;;;;;;;19.63;12.23;;;16.90;71.30;;;17.82;40.11;98826.19;5079544;27;20067;-83
2023/01/27 02:34:17;;;;;;;19.40;13.25;;;16.80;71.20;;;17.82;40.11;98819.88;5058917;27;20043;-82
2023/01/27 02:36:50;;;;;;;23.95;14.02;;;16.90;71.30;;;17.84;40.10;98818.44;5078799;28;20433;-83
2023/01/27 02:39:17;;;;;;;23.65;13.48;;;16.80;71.20;;;17.88;39.77;98824.88;5063687;27;20433;-83
2023/01/27 02:41:54;;;;;;;19.38;12.52;;;16.90;71.20;;;17.93;39.68;98815.69;5080675;27;20047;-82
2023/01/27 02:44:20;;;;;;;18.67;11.43;;;16.90;71.20;;;17.99;39.93;98815.22;5083077;28;20043;-83
2023/01/27 02:46:46;;;;;;;19.38;12.23;;;16.90;71.20;;;18.01;39.47;98820.38;5098324;27;20103;-83
2023/01/27 02:49:12;;;;;;;20.83;12.93;;;16.90;71.10;;;18.07;39.55;98821.84;5094550;27;20039;-83
2023/01/27 02:51:38;;;;;;;20.00;11.50;;;17.00;71.00;;;18.06;39.44;98813.91;5060944;27;20047;-82
2023/01/27 02:54:05;;;;;;;16.77;11.55;;;17.00;70.80;;;18.07;39.51;98821.03;5083674;27;20055;-82
2023/01/27 02:56:31;;;;;;;20.23;12.00;;;17.00;70.70;;;18.05;39.56;98818.59;5065801;27;20123;-83
2023/01/27 02:58:57;;;;;;;17.30;10.93;;;17.10;70.70;;;18.10;39.68;98817.63;5100798;27;20035;-83
2023/01/27 03:01:24;;;;;;;20.15;11.55;;;17.10;70.60;;;18.12;39.69;98812.63;5115810;27;20031;-83
2023/01/27 03:03:51;;;;;;;18.95;12.13;;;17.10;70.50;;;18.14;39.33;98815.84;5063313;27;20049;-83
2023/01/27 03:06:18;;;;;;;21.10;11.68;;;17.20;70.40;;;18.14;39.40;98816.69;5114577;27;20056;-83
2023/01/27 03:08:44;;;;;;;17.63;10.63;;;17.20;70.40;;;18.17;39.45;98824.25;5079925;27;20047;-83
2023/01/27 03:11:10;;;;;;;14.95;11.10;;;17.20;70.40;;;18.20;39.20;98823.59;5099674;27;20096;-83
2023/01/27 03:13:36;;;;;;;15.80;11.23;;;17.20;70.40;;;18.25;39.26;98819.91;5064383;27;20060;-83
2023/01/27 03:18:49;;;;;;;18.98;11.98;;;17.20;70.30;;;18.30;39.05;98822.47;5083832;27;20410;-82
2023/01/27 03:21:16;;;;;;;19.92;12.00;;;17.30;70.30;;;18.33;39.36;98819.06;5083880;27;20042;-82
2023/01/27 03:23:44;;;;;;;17.00;12.40;;;17.30;70.30;;;18.37;39.20;98822.81;5062481;27;20035;-82
2023/01/27 03:26:10;;;;;;;16.40;10.57;;;17.40;70.40;;;18.42;39.15;98817.13;5101452;28;20073;-83
2023/01/27 03:28:36;;;;;;;20.30;11.70;;;17.40;70.20;;;18.41;39.20;98814.72;5099925;28;20043;-82
2023/01/27 03:31:08;;;;;;;23.33;12.93;;;17.40;70.30;;;18.41;39.10;98814.72;5082642;27;20035;-83
2023/01/27 03:33:34;;;;;;;;;;;17.40;70.00;;;18.43;39.04;98816.00;5115945;28;20039;-82
2023/01/27 03:47:00;;;;;;;17.33;11.65;;;17.50;70.00;;;18.51;39.12;98805.31;5087705;27;20043;-82
2023/01/27 03:49:26;;;;;;;17.73;11.35;;;17.50;70.20;;;18.54;38.77;98810.16;5077654;27;20031;-82
2023/01/27 03:51:52;;;;;;;16.67;11.43;;;17.50;70.10;;;18.54;39.18;98808.22;5079038;27;20569;-82
2023/01/27 03:54:18;;;;;;;16.77;11.65;;;17.50;70.10;;;18.54;39.12;98812.91;5097960;27;20127;-82
2023/01/27 03:56:46;;;;;;;19.40;11.68;;;17.60;70.10;;;18.54;39.13;98808.22;5082605;27;20045;-82
2023/01/27 03:59:13;;;;;;;17.88;10.25;;;17.50;70.10;;;18.56;39.06;98808.69;5099975;27;20122;-82
2023/01/27 04:01:39;;;;;;;16.27;10.07;;;17.50;70.20;;;18.58;39.10;98808.38;5113812;27;20043;-82
2023/01/27 04:06:54;;;;;;;18.92;11.57;;;17.60;70.10;;;18.58;39.02;98811.94;5103519;27;20482;-83
2023/01/27 04:09:29;;;;;;;15.38;10.48;;;17.60;70.10;;;18.61;38.84;98807.72;5086886;27;20047;-82
2023/01/27 04:11:57;;;;;;;16.23;11.20;;;17.60;70.10;;;18.62;38.90;98807.41;5099120;27;20047;-82
2023/01/27 04:14:40;;;;;;;15.00;10.15;;;17.60;70.10;;;18.60;39.10;98817.13;5082066;27;20079;-82
2023/01/27 04:17:17;;;;;;;18.77;10.20;;;17.50;70.30;;;18.63;39.09;98816.47;5105415;27;20043;-82
2023/01/27 04:19:43;;;;;;;13.60;10.63;;;17.60;70.20;;;18.62;39.19;98817.56;5084649;27;20035;-82
2023/01/27 04:22:12;;;;;;;22.35;11.25;;;17.60;70.30;;;18.63;39.07;98814.50;5096525;27;20038;-82
2023/01/27 04:24:38;;;;;;;18.13;10.95;;;17.60;70.10;;;18.63;39.14;98814.50;5082849;27;20057;-82
2023/01/27 04:27:07;;;;;;;15.88;10.45;;;17.60;70.10;;;18.64;38.87;98810.63;5093184;27;20035;-82
2023/01/27 04:29:36;;;;;;;14.93;10.43;;;17.60;70.10;;;18.66;39.00;98818.53;5079746;27;20047;-82
2023/01/27 04:32:04;;;;;;;16.10;10.68;;;17.60;70.10;;;18.64;39.04;98812.56;5082556;27;20058;-82
2023/01/27 04:34:31;;;;;;;15.45;10.75;;;17.60;70.10;;;18.64;38.98;98807.88;5077365;27;20096;-82
2023/01/27 04:36:56;;;;;;;14.15;9.90;;;17.60;70.10;;;18.63;39.16;98810.97;5080044;27;20031;-82
2023/01/27 04:39:24;;;;;;;16.35;9.93;;;17.60;70.10;;;18.64;38.94;98812.56;5078504;27;20054;-82
2023/01/27 04:41:50;;;;;;;18.52;12.05;;;17.60;70.20;;;18.65;38.81;98814.19;5078515;27;20079;-83
2023/01/27 04:44:19;;;;;;;16.15;10.30;;;17.60;70.10;;;18.65;39.24;98814.19;5105260;27;20058;-83
2023/01/27 04:46:45;;;;;;;17.08;11.30;;;17.60;70.10;;;18.65;38.93;98809.50;5083071;27;20035;-83
2023/01/27 04:49:12;;;;;;;14.70;10.55;;;17.60;70.90;;;18.66;38.99;98815.78;5114920;27;20039;-83
2023/01/27 04:51:37;;;;;;;16.08;10.38;;;17.60;70.10;;;18.66;38.91;98810.31;5097959;27;20049;-83
2023/01/27 04:54:04;;;;;;;13.77;10.15;;;17.60;70.20;;;18.70;38.89;98815.94;5082075;27;20039;-83
2023/01/27 04:56:36;;;;;;;15.98;11.00;;;17.60;70.10;;;18.69;38.96;98811.59;5080992;27;20329;-83
2023/01/27 04:59:05;;;;;;;15.55;9.95;;;17.60;70.10;;;18.69;38.85;98812.38;5069994;27;20164;-82
2023/01/27 05:01:31;;;;;;;15.35;10.50;;;17.60;70.10;;;18.66;38.90;98819.34;5114342;27;20413;-83
2023/01/27 05:03:57;;;;;;;15.75;10.48;;;17.60;70.10;;;18.66;39.00;98810.31;5097170;27;20049;-82
2023/01/27 05:06:23;;;;;;;15.70;10.95;;;17.60;70.10;;;18.65;38.90;98820.50;5118614;27;20045;-83
2023/01/27 05:08:49;;;;;;;15.60;10.43;;;17.60;70.10;;;18.66;39.00;98824.03;5082781;27;20047;-82
2023/01/27 05:11:16;;;;;;;14.80;10.48;;;17.60;70.10;;;18.66;38.90;98832.28;5101635;27;20138;-82
2023/01/27 05:13:42;;;;;;;15.48;9.90;;;17.60;70.10;;;18.67;39.04;98828.38;5105657;27;20063;-82
2023/01/27 05:16:09;;;;;;;12.20;9.43;;;17.60;70.10;;;18.68;38.97;98830.03;5084991;27;20043;-83
2023/01/27 05:18:36;;;;;;;16.15;10.95;;;17.60;70.10;;;18.69;38.97;98830.81;5115970;27;20045;-83
2023/01/27 05:21:02;;;;;;;16.00;9.75;;;17.70;70.20;;;18.69;38.79;98828.88;5084415;27;20035;-83
2023/01/27 05:23:35;;;;;;;14.60;9.70;;;17.60;70.10;;;18.66;39.05;98833.09;5079275;27;20028;-83
2023/01/27 05:26:25;;;;;;;14.95;10.18;;;17.60;70.10;;;18.65;38.94;98833.44;5102073;27;20646;-82
2023/01/27 05:28:52;;;;;;;14.20;10.63;;;17.70;70.20;;;18.66;38.81;98832.28;5100293;27;20043;-82
2023/01/27 05:31:26;;;;;;;14.15;10.00;;;17.60;70.10;;;18.66;38.80;98837.78;5081251;27;20043;-82
2023/01/27 05:33:53;;;;;;;14.00;9.30;;;17.60;70.10;;;18.66;38.88;98838.59;5086048;27;20549;-82
2023/01/27 05:36:21;;;;;;;12.38;8.73;;;17.60;70.10;;;18.66;39.00;98838.59;5088824;27;20045;-81
2023/01/27 05:38:51;;;;;;;11.82;8.70;;;17.60;70.10;;;18.68;38.86;98830.03;5067687;27;20035;-81
2023/01/27 05:41:18;;;;;;;13.40;9.10;;;17.60;70.10;;;18.69;39.00;98826.13;5113004;27;20074;-81
2023/01/27 05:43:45;;;;;;;14.55;9.07;;;17.60;70.10;;;18.65;39.10;98834.22;5098557;27;20057;-81
2023/01/27 05:46:19;;;;;;;13.32;9.63;;;17.60;70.10;;;18.65;38.97;98833.44;5100966;27;20050;-81
2023/01/27 05:48:51;;;;;;;13.18;9.70;;;17.60;70.10;;;18.64;38.89;98829.84;5077406;27;20040;-81
2023/01/27 05:51:20;;;;;;;13.30;9.20;;;17.60;70.10;;;18.65;38.87;98833.44;5099185;27;20046;-81
2023/01/27 05:53:46;;;;;;;11.32;8.35;;;17.60;70.10;;;18.65;38.84;98828.72;5082883;27;20068;-81
2023/01/27 05:56:15;;;;;;;10.57;8.15;;;17.60;70.10;;;18.65;38.85;98828.72;5098593;27;20055;-81
2023/01/27 05:58:42;;;;;;;13.82;9.38;;;17.60;70.10;;;18.65;38.84;98831.47;5081432;27;20035;-81
2023/01/27 06:01:13;;;;;;;11.88;8.80;;;17.60;70.20;;;18.63;38.84;98833.75;5115065;27;20063;-82
2023/01/27 06:03:39;;;;;;;13.70;9.50;;;17.60;70.10;;;18.64;38.89;98835.34;5111928;27;20464;-81
2023/01/27 06:06:06;;;;;;;12.98;9.23;;;17.60;70.10;;;18.62;39.09;98845.03;5077750;27;20110;-81
2023/01/27 06:08:33;;;;;;;12.93;8.70;;;17.60;70.30;;;18.62;39.12;98840.38;5084025;27;20091;-82
2023/01/27 06:10:59;;;;;;;10.45;8.75;;;17.60;70.30;;;18.60;39.21;98839.09;5096391;27;20478;-81
2023/01/27 06:13:25;;;;;;;13.55;9.90;;;17.60;70.50;;;18.63;39.03;98846.69;5066259;27;20036;-81
2023/01/27 06:15:51;;;;;;;13.20;9.10;;;17.60;70.90;;;18.66;39.21;98854.25;5116338;27;20071;-82
2023/01/27 06:18:18;;;;;;;12.35;8.65;;;17.50;70.40;;;18.64;38.94;98859.28;5082059;27;20090;-81
2023/01/27 06:20:44;;;;;;;13.38;8.93;;;17.50;70.30;;;18.63;38.89;98861.22;5082473;27;20486;-81
2023/01/27 06:23:12;;;;;;;12.82;8.63;;;17.50;70.50;;;18.63;38.84;98855.72;5093285;27;20046;-81
2023/01/27 06:25:40;;;;;;;12.90;8.93;;;17.50;70.30;;;18.62;38.87;98864.28;5099171;27;20533;-82
2023/01/27 06:28:07;;;;;;;10.20;8.23;;;17.50;70.30;;;18.63;38.87;98854.91;5061352;27;20410;-82
2023/01/27 06:30:36;;;;;;;12.27;8.50;;;17.50;70.30;;;18.60;38.99;98856.38;5097449;27;20093;-81
2023/01/27 06:33:03;;;;;;;12.13;8.68;;;17.50;70.40;;;18.59;38.95;98859.44;5079928;27;20102;-82
2023/01/27 06:35:29;;;;;;;12.40;8.27;;;17.50;70.50;;;18.61;38.96;98863.47;5080533;27;20047;-81
2023/01/27 06:37:57;;;;;;;11.35;9.10;;;17.40;70.60;;;18.62;39.03;98864.28;5097474;27;20292;-82
2023/01/27 06:40:25;;;;;;;12.32;8.38;;;17.40;70.60;;;18.59;38.84;98870.44;5082976;27;20035;-82
2023/01/27 06:42:51;;;;;;;13.20;8.50;;;17.40;70.40;;;18.56;38.96;98866.38;5080363;27;20444;-82
2023/01/27 06:45:18;;;;;;;12.50;8.63;;;17.40;70.40;;;18.58;39.04;98863.34;5112419;27;20043;-82
2023/01/27 06:47:45;;;;;;;11.80;7.97;;;17.40;70.50;;;18.54;38.91;98867.84;5075292;27;20121;-80
2023/01/27 06:50:11;;;;;;;11.57;8.13;;;17.40;70.50;;;18.56;38.99;98873.81;5080371;27;20039;-80
2023/01/27 06:52:38;;;;;;;10.13;7.00;;;17.40;70.60;;;18.54;39.12;98876.88;5064234;27;20131;-80
2023/01/27 06:55:04;;;;;;;12.52;9.13;;;17.40;70.80;;;18.53;39.17;98874.47;5095639;27;20035;-80
2023/01/27 06:57:30;;;;;;;13.10;8.13;;;17.40;70.70;;;18.56;38.86;98876.56;5080668;27;20477;-80
2023/01/27 06:59:56;;;;;;;11.23;8.23;;;17.30;70.60;;;18.54;39.16;98876.88;5061723;27;20047;-79
2023/01/27 07:02:23;;;;;;;13.10;8.32;;;17.30;70.50;;;18.53;39.13;98871.75;5055062;27;20047;-79
2023/01/27 07:04:49;;;;;;;10.30;7.60;;;17.30;70.60;;;18.55;39.05;98873.03;5078136;27;20039;-80
2023/01/27 07:07:15;;;;;;;11.35;8.20;;;17.40;70.70;;;18.55;38.86;98874.97;5063046;27;20035;-80
2023/01/27 07:09:41;;;;;;;12.52;9.88;;;17.30;70.60;;;18.51;39.08;98874.00;5074678;27;20073;-81
2023/01/27 07:12:07;;;;;;;10.85;8.15;;;17.40;70.50;;;18.50;38.92;98875.13;5084243;27;20077;-81
2023/01/27 07:14:33;;;;;;;11.40;8.23;;;17.30;70.60;;;18.53;38.70;98878.03;5075385;27;20039;-82
2023/01/27 07:17:00;;;;;;;10.65;8.32;;;17.30;70.50;;;18.50;39.05;98875.94;5081832;27;20057;-82
2023/01/27 07:19:29;;;;;;;13.02;8.80;;;17.30;70.50;;;18.49;38.97;98881.75;5093766;27;20118;-82
2023/01/27 07:21:55;;;;;;;12.48;8.00;;;17.30;70.40;;;18.52;38.99;98886.59;5061193;27;20039;-81
2023/01/27 07:24:21;;;;;;;13.00;8.68;;;17.30;70.60;;;18.51;39.06;98883.03;5126092;27;20051;-81
2023/01/27 07:26:47;;;;;;;10.88;8.25;;;17.30;70.80;;;18.50;38.78;98883.38;5106791;27;20058;-81
2023/01/27 07:29:13;;;;;;;11.45;7.57;;;17.30;70.60;;;18.50;38.98;98877.88;5076889;28;20035;-82
2023/01/27 07:31:40;;;;;;;10.65;8.07;;;17.30;70.60;;;18.54;39.16;98878.84;5091916;28;20049;-81
2023/01/27 07:34:05;;;;;;;9.52;7.65;;;17.30;70.60;;;18.47;39.01;98879.34;5079399;28;20443;-82
2023/01/27 07:36:34;;;;;;;9.75;7.78;;;17.30;70.60;;;18.48;39.04;98891.13;5107420;28;20420;-82
2023/01/27 07:39:00;;;;;;;10.60;8.48;;;17.30;70.50;;;18.48;38.89;98894.69;5092939;28;20043;-81
2023/01/27 07:41:26;;;;;;;11.48;7.47;;;17.20;70.40;;;18.47;38.98;98889.50;5110569;27;20054;-81
2023/01/27 07:43:52;;;;;;;11.82;7.93;;;17.20;70.60;;;18.50;38.89;98888.88;5079758;28;20035;-82
2023/01/27 07:46:19;;;;;;;10.18;8.23;;;17.20;70.50;;;18.52;38.86;98889.34;5091121;28;20541;-82
2023/01/27 07:48:45;;;;;;;9.98;7.32;;;17.20;70.50;;;18.46;38.91;98890.63;5072698;28;20556;-82
2023/01/27 07:51:13;;;;;;;13.20;9.27;;;17.20;70.50;;;18.43;38.95;98884.66;5095962;28;20414;-81
2023/01/27 07:53:39;;;;;;;13.18;8.60;;;17.20;70.60;;;18.42;38.86;98879.50;5088560;28;20043;-81
2023/01/27 07:56:10;;;;;;;11.70;8.50;;;17.20;71.00;;;18.41;38.99;98875.94;5077323;28;20043;-81
2023/01/27 07:58:40;;;;;;;12.87;8.27;;;17.20;70.20;;;18.43;38.88;98884.66;5080662;28;20035;-81
2023/01/27 08:01:10;;;;;;;11.07;8.05;;;17.20;70.20;;;18.41;38.70;98886.13;5093548;28;20099;-81
2023/01/27 08:03:36;;;;;;;9.32;7.07;;;17.20;70.10;;;18.38;38.72;98893.06;5108885;28;20778;-81
2023/01/27 08:06:07;;;;;;;12.77;8.32;;;17.20;70.20;;;18.36;39.09;98892.56;5093012;28;20043;-81
2023/01/27 08:08:33;;;;;;;12.75;8.27;;;17.20;70.40;;;18.40;38.78;98892.75;5095309;28;20039;-82
2023/01/27 08:11:06;;;;;;;14.07;8.70;;;17.20;70.30;;;18.40;38.83;98895.50;5095057;28;20058;-82
2023/01/27 08:13:32;;;;;;;10.88;7.72;;;17.20;70.20;;;18.38;38.73;98898.56;5085774;28;20043;-82
2023/01/27 08:16:00;;;;;;;12.43;8.50;;;17.20;70.00;;;18.38;38.67;98906.00;5078803;28;20054;-81
2023/01/27 08:18:27;;;;;;;11.05;8.02;;;17.20;70.00;;;18.42;38.83;98899.53;5090456;28;20039;-82
2023/01/27 08:20:54;;;;;;;9.73;7.63;;;17.20;70.50;;;18.44;39.09;98902.78;5078967;28;20043;-81
2023/01/27 08:23:21;;;;;;;13.35;8.68;;;17.20;70.60;;;18.47;38.87;98905.97;5090708;28;20047;-81
2023/01/27 08:25:55;;;;;;;10.65;8.10;;;17.20;70.50;;;18.44;38.85;98905.50;5092215;28;20043;-81
2023/01/27 08:28:23;;;;;;;10.18;7.40;;;17.20;70.60;;;18.42;38.95;98909.72;5068398;28;20047;-81
2023/01/27 08:30:50;;;;;;;16.23;7.72;;;17.20;70.80;;;18.40;38.96;98910.03;5077923;28;20043;-81
2023/01/27 08:33:20;;;;;;;11.68;8.43;;;17.10;70.70;;;18.44;39.18;98912.91;5074631;27;20039;-81
2023/01/27 08:35:48;;;;;;;9.40;7.43;;;17.20;71.10;;;18.41;39.34;98919.88;5084686;27;20563;-81
2023/01/27 08:38:15;;;;;;;10.70;7.75;;;17.20;71.30;;;18.46;39.30;98918.09;5066865;27;20035;-81
2023/01/27 08:40:42;;;;;;;11.77;8.10;;;17.20;71.40;;;18.44;39.21;98913.75;5099098;27;20111;-81
2023/01/27 08:43:08;;;;;;;13.02;7.90;;;17.20;71.20;;;18.43;39.30;98914.88;5099116;27;20111;-81
2023/01/27 08:45:34;;;;;;;10.88;8.07;;;17.20;71.10;;;18.47;39.24;98915.03;5082261;27;20039;-81
2023/01/27 08:48:00;;;;;;;10.52;6.78;;;17.20;71.00;;;18.50;38.96;98916.34;5099721;27;20038;-80
2023/01/27 08:50:29;;;;;;;12.05;7.63;;;17.20;70.90;;;18.50;38.96;98921.84;5064522;27;20049;-81
2023/01/27 08:52:59;;;;;;;9.95;7.85;;;17.20;70.70;;;18.51;38.98;98928.94;5079614;27;20042;-80
2023/01/27 08:55:30;;;;;;;11.10;7.77;;;17.20;70.90;;;18.48;38.87;98922.16;5077585;27;20044;-80
2023/01/27 08:57:56;;;;;;;11.40;8.20;;;17.20;70.80;;;18.47;38.87;98926.03;5084516;27;20276;-81
2023/01/27 09:00:23;;;;;;;15.07;8.40;;;17.20;70.80;;;18.50;38.76;98927.31;5077396;27;20035;-81
2023/01/27 09:02:50;;;;;;;14.63;7.32;;;17.20;70.90;;;18.57;40.94;98933.94;5095780;27;20038;-80
2023/01/27 09:05:17;;;;;;;14.30;8.25;;;17.20;74.00;;;18.54;40.02;98933.78;5076781;27;20501;-80
2023/01/27 09:07:44;;;;;;;14.43;8.13;;;17.20;72.60;;;18.56;39.87;98931.50;5094472;27;20424;-80
2023/01/27 09:10:11;;;;;;;11.68;7.95;;;17.20;72.60;;;18.53;39.67;98937.66;5061512;27;20055;-80
2023/01/27 09:12:37;;;;;;;10.20;7.50;;;17.20;72.20;;;18.52;39.83;98934.13;5111148;27;20061;-80
2023/01/27 09:15:04;;;;;;;13.10;8.45;;;17.20;72.20;;;18.53;39.61;98927.47;5107871;27;20035;-80
2023/01/27 09:17:30;;;;;;;13.82;7.57;;;17.20;71.90;;;18.52;39.57;98917.63;5058564;27;20047;-80
2023/01/27 09:19:56;;;;;;;14.90;8.45;;;17.30;71.80;;;18.56;39.63;98928.78;5075974;27;20406;-80
2023/01/27 09:22:22;;;;;;;14.48;8.13;;;17.20;71.90;;;18.58;39.61;98929.25;5073573;27;20039;-79
2023/01/27 09:24:48;;;;;;;15.40;8.15;;;17.30;71.60;;;18.57;39.48;98935.88;5091027;27;20051;-79
2023/01/27 09:27:14;;;;;;;15.00;8.27;;;17.30;72.50;;;18.59;39.54;98936.34;5074532;27;20038;-79
2023/01/27 09:29:40;;;;;;;12.75;9.35;;;17.30;71.80;;;18.56;39.40;98934.25;5095243;27;20501;-80
2023/01/27 09:32:08;;;;;;;12.35;7.55;;;17.20;71.50;;;18.59;39.31;98936.34;5076032;27;20039;-80
2023/01/27 09:34:34;;;;;;;14.88;9.48;;;17.30;71.60;;;18.57;39.32;98936.69;5109567;27;20051;-81
2023/01/27 09:37:06;;;;;;;12.70;8.13;;;17.30;71.50;;;18.63;39.18;98942.84;5095795;27;20379;-81
2023/01/27 09:39:32;;;;;;;14.00;7.75;;;17.40;72.30;;;18.62;39.36;98935.72;5080210;27;20614;-81
2023/01/27 09:42:40;;;;;;;12.45;7.95;;;17.30;71.20;;;18.64;39.31;98941.69;5094582;27;20039;-80
2023/01/27 09:45:23;;;;;;;10.80;7.60;;;17.40;71.40;;;18.70;39.16;98937.66;5110534;27;20075;-81
2023/01/27 09:48:14;;;;;;;11.98;8.00;;;17.40;71.20;;;18.69;38.93;98936.03;5111629;27;20039;-84
2023/01/27 09:51:00;;;;;;;11.48;8.35;;;17.40;71.10;;;18.70;39.03;98937.66;5129849;27;20043;-82
2023/01/27 09:53:49;;;;;;;14.02;7.80;;;17.40;71.10;;;18.70;38.90;98934.91;5091116;27;20038;-82
2023/01/27 09:56:31;;;;;;;12.77;8.90;;;17.40;70.80;;;18.71;38.95;98936.53;5106659;27;20443;-82
2023/01/27 09:59:32;;;;;;;14.60;7.95;;;17.40;71.00;;;18.70;38.83;98937.66;5110010;27;20043;-82
2023/01/27 10:02:43;;;;;;;10.60;8.25;;;17.40;70.90;;;18.64;38.93;98931.50;5105800;27;20478;-82
2023/01/27 10:06:05;;;;;;;12.07;7.88;;;17.40;71.70;;;18.67;39.03;98924.56;5117460;27;20482;-82
2023/01/27 10:08:46;;;;;;;13.45;8.43;;;17.30;70.80;;;18.65;38.93;98924.91;5116108;27;20414;-82
2023/01/27 10:12:17;;;;;;;13.55;8.13;;;17.30;70.90;;;18.65;38.97;98919.41;5082699;27;20395;-82
2023/01/27 10:15:15;;;;;;;15.40;8.73;;;17.40;70.80;;;18.68;38.99;98922.63;5115605;27;20066;-82
2023/01/27 10:17:44;;;;;;;10.07;7.63;;;17.40;70.60;;;18.70;38.74;98912.09;5111773;27;20159;-83
2023/01/27 10:20:23;;;;;;;13.65;7.90;;;17.40;70.50;;;18.72;38.78;98921.63;5113782;27;20062;-83
2023/01/27 10:23:22;;;;;;;15.88;8.27;;;17.40;70.70;;;18.73;38.66;98917.78;5110800;27;20035;-82
2023/01/27 10:26:19;;;;;;;10.48;7.15;;;17.40;70.50;;;18.70;38.77;98909.34;5082867;27;20448;-82
2023/01/27 10:28:50;;;;;;;10.63;7.93;;;17.40;70.60;;;18.70;39.10;98921.19;5111038;27;20047;-83
2023/01/27 10:31:27;;;;;;;14.85;8.68;;;17.40;70.50;;;18.70;38.82;98909.34;5078331;27;20047;-80
2023/01/27 10:33:55;;;;;;;14.63;7.82;;;17.40;70.40;;;18.72;38.84;98907.91;5092863;27;20043;-80
2023/01/27 10:36:27;;;;;;;12.10;7.75;;;17.50;70.30;;;18.74;38.82;98908.38;5062635;27;20051;-80
2023/01/27 10:39:30;;;;;;;11.73;7.72;;;17.40;70.30;;;18.72;38.82;98907.91;5108862;27;20151;-80
2023/01/27 10:42:27;;;;;;;12.77;8.55;;;17.50;70.50;;;18.72;38.82;98910.66;5077489;27;20121;-80
2023/01/27 10:44:53;;;;;;;15.98;8.75;;;17.50;70.40;;;18.71;38.79;98911.78;5093421;27;20044;-80
2023/01/27 10:47:55;;;;;;;12.13;8.48;;;17.50;70.00;;;18.66;38.46;98911.97;5110078;27;20047;-81
2023/01/27 10:50:29;;;;;;;11.80;8.00;;;17.50;70.00;;;18.64;38.92;98908.72;5107383;27;20035;-81